createdAt,value
2023-01-22T00:03:39.873Z,100921.92
2023-01-22T00:07:47.116Z,100929.14
2023-01-22T00:11:53.534Z,100936.11
2023-01-22T00:16:06.990Z,100942.71
2023-01-22T00:20:19.019Z,100949.30
2023-01-22T00:24:23.079Z,100953.43
2023-01-22T00:28:28.154Z,100956.91
2023-01-22T00:32:31.049Z,100960.09
2023-01-22T00:36:39.580Z,100960.45
2023-01-22T00:40:45.429Z,100963.01
2023-01-22T00:44:49.650Z,100960.38
2023-01-22T00:48:56.990Z,100958.55
2023-01-22T00:53:05.184Z,100964.05
2023-01-22T00:57:12.680Z,100974.56
2023-01-22T01:01:18.225Z,100979.95
2023-01-22T01:05:23.092Z,100980.40
2023-01-22T01:09:27.675Z,100983.52
2023-01-22T01:13:37.780Z,100986.02
2023-01-22T01:17:40.066Z,100983.36
2023-01-22T01:21:42.758Z,100984.02
2023-01-22T01:25:45.056Z,100988.49
2023-01-22T01:29:47.338Z,100988.48
2023-01-22T01:33:50.903Z,100989.16
2023-01-22T01:37:53.630Z,100990.78
2023-01-22T01:41:55.900Z,100994.92
2023-01-22T01:46:00.146Z,100999.98
2023-01-22T01:50:02.775Z,101000.11
2023-01-22T01:54:06.259Z,101001.73
2023-01-22T01:58:20.947Z,100996.13
2023-01-22T02:02:23.979Z,101000.00
2023-01-22T02:06:26.896Z,100994.26
2023-01-22T02:10:28.996Z,100990.98
2023-01-22T02:14:34.742Z,100994.27
2023-01-22T02:18:37.093Z,100999.37
2023-01-22T02:22:39.981Z,101003.60
2023-01-22T02:26:45.066Z,101005.51
2023-01-22T02:30:51.120Z,101002.93
2023-01-22T02:34:53.564Z,101005.31
2023-01-22T02:38:55.814Z,101006.14
2023-01-22T02:42:58.113Z,101006.69
2023-01-22T02:47:00.308Z,101010.91
2023-01-22T02:51:03.324Z,101012.71
2023-01-22T02:55:06.246Z,101012.19
2023-01-22T02:59:08.340Z,101018.98
2023-01-22T03:03:15.183Z,101030.27
2023-01-22T03:07:18.738Z,101031.61
2023-01-22T03:11:21.536Z,101035.48
2023-01-22T03:15:43.329Z,101034.91
2023-01-22T03:20:04.961Z,101043.60
2023-01-22T03:24:07.262Z,101042.66
2023-01-22T03:28:16.093Z,101050.25
2023-01-22T03:32:21.368Z,101052.42
2023-01-22T03:36:23.463Z,101056.86
2023-01-22T03:40:26.896Z,101065.77
2023-01-22T03:44:29.022Z,101070.85
2023-01-22T03:48:32.168Z,101074.50
2023-01-22T03:52:35.071Z,101070.05
2023-01-22T03:56:37.197Z,101071.29
2023-01-22T04:00:42.851Z,101070.82
2023-01-22T04:04:47.312Z,101077.81
2023-01-22T04:08:51.452Z,101079.32
2023-01-22T04:12:55.318Z,101088.64
2023-01-22T04:16:58.467Z,101096.08
2023-01-22T04:21:24.991Z,101086.86
2023-01-22T04:25:33.305Z,101082.69
2023-01-22T04:29:35.397Z,101074.22
2023-01-22T04:33:40.211Z,101083.98
2023-01-22T04:37:46.695Z,101085.40
2023-01-22T04:41:48.815Z,101087.30
2023-01-22T04:45:51.037Z,101092.13
2023-01-22T04:49:55.722Z,101098.81
2023-01-22T04:53:57.927Z,101104.02
2023-01-22T04:58:01.520Z,101111.09
2023-01-22T05:02:03.958Z,101119.45
2023-01-22T05:06:07.088Z,101124.66
2023-01-22T05:10:11.317Z,101130.41
2023-01-22T05:14:13.567Z,101135.85
2023-01-22T05:18:15.814Z,101139.27
2023-01-22T05:22:23.046Z,101142.29
2023-01-22T05:26:25.130Z,101149.76
2023-01-22T05:30:30.764Z,101149.03
2023-01-22T05:35:02.564Z,101149.19
2023-01-22T05:39:05.298Z,101151.25
2023-01-22T05:43:08.000Z,101158.02
2023-01-22T05:47:12.720Z,101158.23
2023-01-22T05:51:34.377Z,101160.85
2023-01-22T05:55:37.931Z,101164.98
2023-01-22T05:59:40.401Z,101167.95
2023-01-22T06:03:44.381Z,101168.64
2023-01-22T06:07:47.403Z,101171.86
2023-01-22T06:11:49.541Z,101175.73
2023-01-22T06:15:53.215Z,101179.25
2023-01-22T06:20:10.018Z,101180.92
2023-01-22T06:24:12.290Z,101187.31
2023-01-22T06:28:14.946Z,101190.48
2023-01-22T06:32:18.295Z,101195.96
2023-01-22T06:36:20.487Z,101198.44
2023-01-22T06:40:22.982Z,101208.54
2023-01-22T06:44:25.726Z,101211.61
2023-01-22T06:48:27.973Z,101210.68
2023-01-22T06:52:30.124Z,101215.02
2023-01-22T06:56:32.316Z,101213.93
2023-01-22T07:00:34.896Z,101218.64
2023-01-22T07:04:36.965Z,101227.77
2023-01-22T07:08:40.634Z,101230.27
2023-01-22T07:12:42.749Z,101232.98
2023-01-22T07:16:44.848Z,101236.90
2023-01-22T07:20:47.620Z,101242.23
2023-01-22T07:24:49.786Z,101245.09
2023-01-22T07:28:52.765Z,101247.52
2023-01-22T07:33:01.670Z,101251.60
2023-01-22T07:37:04.054Z,101255.56
2023-01-22T07:41:16.919Z,101257.85
2023-01-22T07:45:28.027Z,101259.36
2023-01-22T07:49:30.252Z,101262.89
2023-01-22T07:53:34.241Z,101272.12
2023-01-22T07:57:36.297Z,101277.23
2023-01-22T08:01:38.376Z,101285.60
2023-01-22T08:05:41.936Z,101286.13
2023-01-22T08:09:44.256Z,101287.66
2023-01-22T08:13:46.475Z,101292.50
2023-01-22T08:17:50.669Z,101291.63
2023-01-22T08:21:52.782Z,101302.23
2023-01-22T08:25:59.203Z,101310.50
2023-01-22T08:30:02.114Z,101320.18
2023-01-22T08:34:04.327Z,101323.45
2023-01-22T08:38:07.105Z,101330.85
2023-01-22T08:42:09.585Z,101326.97
2023-01-22T08:46:11.892Z,101329.29
2023-01-22T08:50:14.730Z,101330.67
2023-01-22T08:54:17.745Z,101327.76
2023-01-22T08:58:21.703Z,101335.36
2023-01-22T09:02:23.766Z,101338.54
2023-01-22T09:06:26.750Z,101342.62
2023-01-22T09:10:28.673Z,101343.92
2023-01-22T09:14:30.851Z,101342.38
2023-01-22T09:18:32.870Z,101349.14
2023-01-22T09:22:35.052Z,101350.56
2023-01-22T09:26:37.286Z,101351.88
2023-01-22T09:30:41.296Z,101355.87
2023-01-22T09:34:43.359Z,101353.31
2023-01-22T09:38:45.425Z,101347.27
2023-01-22T09:42:48.803Z,101347.29
2023-01-22T09:46:56.331Z,101346.81
2023-01-22T09:50:59.530Z,101340.68
2023-01-22T09:55:01.734Z,101337.37
2023-01-22T09:59:06.408Z,101335.85
2023-01-22T10:03:22.540Z,101338.39
2023-01-22T10:07:31.063Z,101335.90
2023-01-22T10:11:33.732Z,101335.61
2023-01-22T10:15:35.808Z,101333.67
2023-01-22T10:19:48.507Z,101336.33
2023-01-22T10:23:51.487Z,101333.64
2023-01-22T10:28:00.370Z,101331.42
2023-01-22T10:32:15.439Z,101324.23
2023-01-22T10:36:17.946Z,101326.30
2023-01-22T10:40:30.373Z,101321.24
2023-01-22T10:44:32.424Z,101325.14
2023-01-22T10:48:34.447Z,101330.88
2023-01-22T10:52:41.306Z,101334.60
2023-01-22T10:56:44.598Z,101338.02
2023-01-22T11:00:56.859Z,101332.50
2023-01-22T11:05:14.026Z,101333.32
2023-01-22T11:09:25.239Z,101329.17
2023-01-22T11:13:27.258Z,101325.73
2023-01-22T11:17:37.855Z,101324.24
2023-01-22T11:21:50.982Z,101323.75
2023-01-22T11:26:05.368Z,101324.06
2023-01-22T11:30:32.237Z,101318.55
2023-01-22T11:35:05.606Z,101316.13
2023-01-22T11:39:22.605Z,101315.21
2023-01-22T11:43:55.248Z,101310.44
2023-01-22T11:48:12.153Z,101313.17
2023-01-22T11:52:38.927Z,101307.44
2023-01-22T11:56:46.819Z,101303.27
2023-01-22T12:01:33.496Z,101305.02
2023-01-22T12:05:46.123Z,101304.73
2023-01-22T12:09:47.978Z,101303.96
2023-01-22T12:13:55.534Z,101307.13
2023-01-22T12:18:10.539Z,101309.94
2023-01-22T12:22:31.590Z,101306.58
2023-01-22T12:26:40.468Z,101308.30
2023-01-22T12:30:51.246Z,101304.46
2023-01-22T12:35:04.900Z,101311.86
2023-01-22T12:39:20.932Z,101310.45
2023-01-22T12:43:35.062Z,101316.95
2023-01-22T12:47:48.184Z,101321.36
2023-01-22T12:51:52.649Z,101331.63
2023-01-22T12:56:12.776Z,101336.69
2023-01-22T13:00:31.349Z,101337.19
2023-01-22T13:04:33.696Z,101341.44
2023-01-22T13:08:42.380Z,101347.73
2023-01-22T13:12:49.072Z,101349.23
2023-01-22T13:16:59.713Z,101347.66
2023-01-22T13:21:06.006Z,101348.34
2023-01-22T13:25:27.062Z,101350.95
2023-01-22T13:29:33.528Z,101352.46
2023-01-22T13:33:35.435Z,101353.77
2023-01-22T13:37:38.321Z,101351.85
2023-01-22T13:41:40.361Z,101359.42
2023-01-22T13:45:42.400Z,101358.64
2023-01-22T13:49:44.352Z,101355.68
2023-01-22T13:53:53.015Z,101352.50
2023-01-22T13:57:58.743Z,101358.09
2023-01-22T14:02:19.749Z,101355.33
2023-01-22T14:06:21.815Z,101361.13
2023-01-22T14:10:25.024Z,101369.55
2023-01-22T14:14:39.584Z,101375.43
2023-01-22T14:18:44.737Z,101381.80
2023-01-22T14:22:47.201Z,101379.34
2023-01-22T14:26:49.224Z,101380.44
2023-01-22T14:30:51.495Z,101385.44
2023-01-22T14:34:53.382Z,101388.39
2023-01-22T14:38:57.184Z,101393.06
2023-01-22T14:43:00.679Z,101394.93
2023-01-22T14:47:03.660Z,101392.71
2023-01-22T14:51:10.784Z,101396.29
2023-01-22T14:55:13.416Z,101399.39
2023-01-22T14:59:15.291Z,101409.70
2023-01-22T15:03:17.150Z,101415.07
2023-01-22T15:07:18.997Z,101418.59
2023-01-22T15:11:20.918Z,101421.55
2023-01-22T15:15:27.910Z,101420.08
2023-01-22T15:19:38.926Z,101428.14
2023-01-22T15:23:42.822Z,101426.60
2023-01-22T15:27:45.131Z,101428.05
2023-01-22T15:31:47.293Z,101433.83
2023-01-22T15:35:49.355Z,101432.90
2023-01-22T15:39:51.432Z,101433.25
2023-01-22T15:43:55.798Z,101438.55
2023-01-22T15:47:57.763Z,101437.80
2023-01-22T15:51:59.768Z,101438.70
2023-01-22T15:56:02.527Z,101441.05
2023-01-22T16:00:06.010Z,101452.30
2023-01-22T16:04:14.501Z,101461.84
2023-01-22T16:08:16.705Z,101471.94
2023-01-22T16:12:18.663Z,101479.72
2023-01-22T16:16:26.531Z,101484.23
2023-01-22T16:20:28.715Z,101487.40
2023-01-22T16:24:30.751Z,101494.48
2023-01-22T16:28:32.718Z,101494.89
2023-01-22T16:32:34.756Z,101495.75
2023-01-22T16:36:37.339Z,101498.85
2023-01-22T16:40:39.458Z,101499.19
2023-01-22T16:44:41.617Z,101505.27
2023-01-22T16:48:44.305Z,101503.57
2023-01-22T16:52:46.291Z,101507.73
2023-01-22T16:56:49.710Z,101507.45
2023-01-22T17:00:51.834Z,101518.27
2023-01-22T17:04:54.605Z,101520.85
2023-01-22T17:08:56.618Z,101523.75
2023-01-22T17:12:58.643Z,101527.04
2023-01-22T17:17:01.408Z,101525.79
2023-01-22T17:21:06.759Z,101531.48
2023-01-22T17:25:09.161Z,101532.39
2023-01-22T17:29:11.223Z,101529.20
2023-01-22T17:37:20.375Z,101534.05
2023-01-22T17:41:24.145Z,101536.33
2023-01-22T17:45:26.274Z,101541.28
2023-01-22T17:49:32.743Z,101543.56
2023-01-22T17:53:37.638Z,101550.79
2023-01-22T17:57:41.405Z,101543.96
2023-01-22T18:01:44.674Z,101543.14
2023-01-22T18:05:47.142Z,101545.77
2023-01-22T18:09:49.246Z,101548.72
2023-01-22T18:13:53.589Z,101549.16
2023-01-22T18:17:55.647Z,101552.86
2023-01-22T18:21:57.629Z,101553.58
2023-01-22T18:26:04.137Z,101560.85
2023-01-22T18:30:07.034Z,101562.05
2023-01-22T18:34:11.095Z,101562.71
2023-01-22T18:38:14.360Z,101562.34
2023-01-22T18:42:16.383Z,101560.42
2023-01-22T18:46:18.564Z,101568.54
2023-01-22T18:50:21.588Z,101567.59
2023-01-22T18:54:23.794Z,101572.30
2023-01-22T18:58:35.530Z,101569.28
2023-01-22T19:02:37.635Z,101570.62
2023-01-22T19:06:39.673Z,101571.57
2023-01-22T19:10:41.684Z,101575.95
2023-01-22T19:14:45.575Z,101575.27
2023-01-22T19:18:48.370Z,101576.64
2023-01-22T19:22:50.958Z,101577.33
2023-01-22T19:26:54.362Z,101582.62
2023-01-22T19:30:56.738Z,101582.45
2023-01-22T19:34:58.925Z,101583.98
2023-01-22T19:39:04.605Z,101586.44
2023-01-22T19:43:08.731Z,101594.33
2023-01-22T19:47:12.924Z,101599.27
2023-01-22T19:51:16.749Z,101599.17
2023-01-22T19:55:20.889Z,101599.98
2023-01-22T19:59:24.107Z,101595.97
2023-01-22T20:03:27.494Z,101597.44
2023-01-22T20:07:29.858Z,101598.03
2023-01-22T20:11:32.353Z,101602.12
2023-01-22T20:15:41.493Z,101601.91
2023-01-22T20:19:43.777Z,101604.40
2023-01-22T20:23:47.349Z,101596.61
2023-01-22T20:27:49.264Z,101604.23
2023-01-22T20:31:52.611Z,101609.02
2023-01-22T20:35:56.471Z,101614.66
2023-01-22T20:39:59.485Z,101620.58
2023-01-22T20:44:01.575Z,101617.74
2023-01-22T20:48:03.689Z,101617.58
2023-01-22T20:52:05.902Z,101617.77
2023-01-22T20:56:14.136Z,101623.45
2023-01-22T21:00:16.536Z,101626.24
2023-01-22T21:04:18.574Z,101628.92
2023-01-22T21:08:20.541Z,101632.63
2023-01-22T21:12:22.626Z,101633.84
2023-01-22T21:16:29.155Z,101636.88
2023-01-22T21:20:31.189Z,101638.90
2023-01-22T21:24:53.243Z,101638.06
2023-01-22T21:29:25.007Z,101635.17
2023-01-22T21:34:03.499Z,101643.38
2023-01-22T21:38:33.302Z,101640.27
2023-01-22T21:43:20.002Z,101641.42
2023-01-22T21:47:23.059Z,101645.64
2023-01-22T21:51:26.161Z,101649.86
2023-01-22T21:55:30.208Z,101647.48
2023-01-22T21:59:32.766Z,101647.83
2023-01-22T22:03:35.452Z,101655.23
2023-01-22T22:07:38.251Z,101653.63
2023-01-22T22:11:41.363Z,101661.40
2023-01-22T22:15:44.540Z,101664.35
2023-01-22T22:19:46.942Z,101668.61
2023-01-22T22:23:49.515Z,101669.53
2023-01-22T22:27:54.597Z,101674.55
2023-01-22T22:31:58.066Z,101677.02
2023-01-22T22:36:01.591Z,101683.53
2023-01-22T22:40:05.001Z,101684.26
2023-01-22T22:44:07.863Z,101696.27
2023-01-22T22:48:11.386Z,101696.95
2023-01-22T22:52:13.701Z,101699.84
2023-01-22T22:56:16.485Z,101706.28
2023-01-22T23:00:19.192Z,101704.51
2023-01-22T23:04:21.696Z,101706.15
2023-01-22T23:08:25.053Z,101711.51
2023-01-22T23:12:27.954Z,101716.98
2023-01-22T23:16:34.373Z,101713.97
2023-01-22T23:20:36.572Z,101715.66
2023-01-22T23:24:39.032Z,101717.27
2023-01-22T23:28:41.414Z,101721.34
2023-01-22T23:32:45.042Z,101725.42
2023-01-22T23:36:49.319Z,101729.67
2023-01-22T23:40:59.564Z,101728.48
2023-01-22T23:45:01.700Z,101729.16
2023-01-22T23:49:05.593Z,101724.73
2023-01-22T23:53:07.857Z,101730.73
2023-01-22T23:57:10.715Z,101732.19
